sensor_id;sensor_type;location;lat;lon;timestamp;pressure;altitude;pressure_sealevel;temperature;humidity
1371;BME280;14306;49.942;11.570;2023-05-10T00:00:48;96880.31;;;14.92;53.40
1371;BME280;14306;49.942;11.570;2023-05-10T00:03:16;96875.66;;;14.92;53.69
1371;BME280;14306;49.942;11.570;2023-05-10T00:05:45;96880.22;;;14.88;53.62
1371;BME280;14306;49.942;11.570;2023-05-10T00:08:13;96865.59;;;14.81;54.03
1371;BME280;14306;49.942;11.570;2023-05-10T00:10:41;96867.53;;;14.80;53.78
1371;BME280;14306;49.942;11.570;2023-05-10T00:13:12;96873.97;;;14.88;53.69
1371;BME280;14306;49.942;11.570;2023-05-10T00:15:40;96844.59;;;14.69;53.96
1371;BME280;14306;49.942;11.570;2023-05-10T00:18:09;96851.97;;;14.81;53.78
1371;BME280;14306;49.942;11.570;2023-05-10T00:20:37;96850.13;;;14.73;54.11
1371;BME280;14306;49.942;11.570;2023-05-10T00:23:06;96842.66;;;14.70;54.04
1371;BME280;14306;49.942;11.570;2023-05-10T00:25:34;96840.38;;;14.72;53.99
1371;BME280;14306;49.942;11.570;2023-05-10T00:28:02;96842.34;;;14.71;53.80
1371;BME280;14306;49.942;11.570;2023-05-10T00:30:33;96831.88;;;14.61;54.26
1371;BME280;14306;49.942;11.570;2023-05-10T00:33:01;96826.44;;;14.61;54.14
1371;BME280;14306;49.942;11.570;2023-05-10T00:35:29;96838.25;;;14.65;54.32
1371;BME280;14306;49.942;11.570;2023-05-10T00:37:58;96832.53;;;14.70;53.88
1371;BME280;14306;49.942;11.570;2023-05-10T00:40:26;96829.81;;;14.70;53.94
1371;BME280;14306;49.942;11.570;2023-05-10T00:42:55;96830.06;;;14.65;54.16
1371;BME280;14306;49.942;11.570;2023-05-10T00:45:24;96829.03;;;14.70;53.93
1371;BME280;14306;49.942;11.570;2023-05-10T00:47:53;96805.22;;;14.55;54.08
1371;BME280;14306;49.942;11.570;2023-05-10T00:50:23;96827.25;;;14.62;54.45
1371;BME280;14306;49.942;11.570;2023-05-10T00:52:52;96817.59;;;14.64;54.32
1371;BME280;14306;49.942;11.570;2023-05-10T00:55:20;96815.78;;;14.56;54.81
1371;BME280;14306;49.942;11.570;2023-05-10T00:57:49;96814.97;;;14.56;54.83
1371;BME280;14306;49.942;11.570;2023-05-10T01:00:18;96813.28;;;14.39;55.14
1371;BME280;14306;49.942;11.570;2023-05-10T01:02:46;96818.50;;;14.56;54.88
1371;BME280;14306;49.942;11.570;2023-05-10T01:05:18;96811.25;;;14.36;55.30
1371;BME280;14306;49.942;11.570;2023-05-10T01:07:47;96818.75;;;14.39;55.36
1371;BME280;14306;49.942;11.570;2023-05-10T01:10:15;96814.19;;;14.43;55.43
1371;BME280;14306;49.942;11.570;2023-05-10T01:12:46;96816.72;;;14.48;55.35
1371;BME280;14306;49.942;11.570;2023-05-10T01:15:16;96813.09;;;14.44;55.71
1371;BME280;14306;49.942;11.570;2023-05-10T01:17:46;96812.72;;;14.34;56.14
1371;BME280;14306;49.942;11.570;2023-05-10T01:20:15;96807.16;;;14.18;56.56
1371;BME280;14306;49.942;11.570;2023-05-10T01:23:08;96809.44;;;14.16;56.72
1371;BME280;14306;49.942;11.570;2023-05-10T01:28:58;96807.28;;;14.10;57.14
1371;BME280;14306;49.942;11.570;2023-05-10T01:32:02;96817.84;;;14.11;57.11
1371;BME280;14306;49.942;11.570;2023-05-10T01:34:38;96810.69;;;14.31;56.54
1371;BME280;14306;49.942;11.570;2023-05-10T01:37:15;96809.00;;;14.14;56.99
1371;BME280;14306;49.942;11.570;2023-05-10T01:39:49;96820.69;;;14.39;56.42
1371;BME280;14306;49.942;11.570;2023-05-10T01:42:23;96809.56;;;14.44;56.31
1371;BME280;14306;49.942;11.570;2023-05-10T01:44:56;96820.34;;;14.52;56.23
1371;BME280;14306;49.942;11.570;2023-05-10T01:47:32;96824.19;;;14.63;55.80
1371;BME280;14306;49.942;11.570;2023-05-10T01:50:05;96828.22;;;14.69;55.76
1371;BME280;14306;49.942;11.570;2023-05-10T01:52:38;96818.94;;;14.58;55.99
1371;BME280;14306;49.942;11.570;2023-05-10T01:55:13;96822.94;;;14.49;56.51
1371;BME280;14306;49.942;11.570;2023-05-10T01:57:43;96814.47;;;14.26;57.02
1371;BME280;14306;49.942;11.570;2023-05-10T02:00:14;96816.72;;;14.48;56.28
1371;BME280;14306;49.942;11.570;2023-05-10T02:02:47;96822.47;;;14.59;56.18
1371;BME280;14306;49.942;11.570;2023-05-10T02:05:17;96819.44;;;14.24;57.16
1371;BME280;14306;49.942;11.570;2023-05-10T02:07:47;96804.91;;;14.32;56.84
1371;BME280;14306;49.942;11.570;2023-05-10T02:10:16;96818.63;;;14.48;56.34
1371;BME280;14306;49.942;11.570;2023-05-10T02:12:47;96823.81;;;14.65;55.70
1371;BME280;14306;49.942;11.570;2023-05-10T02:15:20;96824.88;;;14.48;56.42
1371;BME280;14306;49.942;11.570;2023-05-10T02:17:51;96825.84;;;14.68;56.05
1371;BME280;14306;49.942;11.570;2023-05-10T02:20:21;96828.91;;;14.66;56.24
1371;BME280;14306;49.942;11.570;2023-05-10T02:22:52;96829.78;;;14.82;55.49
1371;BME280;14306;49.942;11.570;2023-05-10T02:25:22;96817.25;;;14.66;55.95
1371;BME280;14306;49.942;11.570;2023-05-10T02:27:53;96826.91;;;14.63;56.15
1371;BME280;14306;49.942;11.570;2023-05-10T02:30:23;96818.84;;;14.55;56.08
1371;BME280;14306;49.942;11.570;2023-05-10T02:32:53;96825.06;;;14.67;56.24
1371;BME280;14306;49.942;11.570;2023-05-10T02:35:24;96829.69;;;14.79;55.77
1371;BME280;14306;49.942;11.570;2023-05-10T02:37:53;96827.69;;;14.52;56.63
1371;BME280;14306;49.942;11.570;2023-05-10T02:40:22;96834.28;;;14.63;56.58
1371;BME280;14306;49.942;11.570;2023-05-10T02:42:55;96832.75;;;14.77;55.78
1371;BME280;14306;49.942;11.570;2023-05-10T02:45:27;96833.09;;;14.76;56.17
1371;BME280;14306;49.942;11.570;2023-05-10T02:47:59;96831.06;;;14.73;56.07
1371;BME280;14306;49.942;11.570;2023-05-10T02:50:28;96816.00;;;14.51;56.77
1371;BME280;14306;49.942;11.570;2023-05-10T02:53:01;96812.84;;;14.49;57.50
1371;BME280;14306;49.942;11.570;2023-05-10T02:55:36;96818.09;;;14.30;57.34
1371;BME280;14306;49.942;11.570;2023-05-10T02:58:06;96805.69;;;14.21;57.91
1371;BME280;14306;49.942;11.570;2023-05-10T03:00:35;96820.44;;;14.44;57.71
1371;BME280;14306;49.942;11.570;2023-05-10T03:03:06;96810.78;;;14.46;57.26
1371;BME280;14306;49.942;11.570;2023-05-10T03:05:35;96814.44;;;14.38;57.47
1371;BME280;14306;49.942;11.570;2023-05-10T03:08:03;96807.50;;;14.41;57.75
1371;BME280;14306;49.942;11.570;2023-05-10T03:10:33;96807.97;;;14.31;58.08
1371;BME280;14306;49.942;11.570;2023-05-10T03:13:15;96812.97;;;14.29;58.12
1371;BME280;14306;49.942;11.570;2023-05-10T03:15:52;96813.41;;;14.43;58.50
1371;BME280;14306;49.942;11.570;2023-05-10T03:18:30;96799.00;;;14.30;58.36
1371;BME280;14306;49.942;11.570;2023-05-10T03:21:03;96813.22;;;14.24;58.89
1371;BME280;14306;49.942;11.570;2023-05-10T03:23:35;96810.84;;;14.22;58.73
1371;BME280;14306;49.942;11.570;2023-05-10T03:26:04;96787.09;;;14.35;57.76
1371;BME280;14306;49.942;11.570;2023-05-10T03:28:34;96812.06;;;14.25;58.55
1371;BME280;14306;49.942;11.570;2023-05-10T03:31:04;96806.28;;;14.14;59.01
1371;BME280;14306;49.942;11.570;2023-05-10T03:33:35;96820.44;;;14.20;60.09
1371;BME280;14306;49.942;11.570;2023-05-10T03:36:04;96805.69;;;14.09;61.00
1371;BME280;14306;49.942;11.570;2023-05-10T03:38:32;96800.25;;;14.09;61.56
1371;BME280;14306;49.942;11.570;2023-05-10T03:41:02;96805.00;;;13.88;62.33
1371;BME280;14306;49.942;11.570;2023-05-10T03:43:30;96808.97;;;13.90;62.87
1371;BME280;14306;49.942;11.570;2023-05-10T03:46:01;96800.22;;;13.73;63.49
1371;BME280;14306;49.942;11.570;2023-05-10T03:48:30;96805.91;;;13.80;63.41
1371;BME280;14306;49.942;11.570;2023-05-10T03:51:01;96815.69;;;13.93;63.25
1371;BME280;14306;49.942;11.570;2023-05-10T03:53:29;96808.63;;;14.04;63.77
1371;BME280;14306;49.942;11.570;2023-05-10T03:55:58;96807.72;;;14.00;63.42
1371;BME280;14306;49.942;11.570;2023-05-10T03:58:27;96811.59;;;14.11;63.93
1371;BME280;14306;49.942;11.570;2023-05-10T04:00:55;96807.97;;;13.95;63.62
1371;BME280;14306;49.942;11.570;2023-05-10T04:03:24;96802.50;;;13.95;63.36
1371;BME280;14306;49.942;11.570;2023-05-10T04:05:59;96808.88;;;13.99;63.71
1371;BME280;14306;49.942;11.570;2023-05-10T04:08:30;96797.63;;;13.88;63.85
1371;BME280;14306;49.942;11.570;2023-05-10T04:11:06;96810.44;;;14.00;64.48
1371;BME280;14306;49.942;11.570;2023-05-10T04:13:36;96823.16;;;13.96;65.49
1371;BME280;14306;49.942;11.570;2023-05-10T04:16:05;96817.03;;;14.11;66.00
1371;BME280;14306;49.942;11.570;2023-05-10T04:18:34;96831.13;;;14.01;65.35
1371;BME280;14306;49.942;11.570;2023-05-10T04:21:04;96830.88;;;14.06;65.10
1371;BME280;14306;49.942;11.570;2023-05-10T04:23:33;96831.47;;;14.23;66.72
1371;BME280;14306;49.942;11.570;2023-05-10T04:26:02;96840.84;;;13.78;68.93
1371;BME280;14306;49.942;11.570;2023-05-10T04:28:31;96843.56;;;13.78;72.17
1371;BME280;14306;49.942;11.570;2023-05-10T04:31:01;96836.63;;;13.68;71.44
1371;BME280;14306;49.942;11.570;2023-05-10T04:33:31;96832.50;;;13.50;74.69
1371;BME280;14306;49.942;11.570;2023-05-10T04:36:00;96849.84;;;13.58;75.84
1371;BME280;14306;49.942;11.570;2023-05-10T04:38:29;96845.63;;;13.48;76.08
1371;BME280;14306;49.942;11.570;2023-05-10T04:41:05;96856.00;;;13.55;77.67
1371;BME280;14306;49.942;11.570;2023-05-10T04:43:35;96845.59;;;13.36;79.32
1371;BME280;14306;49.942;11.570;2023-05-10T04:46:04;96851.22;;;13.19;77.47
1371;BME280;14306;49.942;11.570;2023-05-10T04:48:33;96867.00;;;13.05;78.93
1371;BME280;14306;49.942;11.570;2023-05-10T04:51:06;96829.81;;;12.77;79.22
1371;BME280;14306;49.942;11.570;2023-05-10T04:53:37;96848.56;;;12.70;80.15
1371;BME280;14306;49.942;11.570;2023-05-10T04:56:16;96856.97;;;12.56;80.23
1371;BME280;14306;49.942;11.570;2023-05-10T04:58:48;96846.59;;;12.29;80.47
1371;BME280;14306;49.942;11.570;2023-05-10T05:01:19;96880.97;;;12.54;83.11
1371;BME280;14306;49.942;11.570;2023-05-10T05:03:48;96886.00;;;12.85;84.80
1371;BME280;14306;49.942;11.570;2023-05-10T05:06:17;96864.47;;;12.80;85.16
1371;BME280;14306;49.942;11.570;2023-05-10T05:08:46;96894.19;;;12.27;85.68
1371;BME280;14306;49.942;11.570;2023-05-10T05:11:18;96884.53;;;12.09;87.07
1371;BME280;14306;49.942;11.570;2023-05-10T05:13:48;96864.88;;;12.12;86.67
1371;BME280;14306;49.942;11.570;2023-05-10T05:16:19;96857.16;;;12.22;87.27
1371;BME280;14306;49.942;11.570;2023-05-10T05:18:49;96874.91;;;12.20;87.98
1371;BME280;14306;49.942;11.570;2023-05-10T05:21:18;96900.28;;;12.24;87.91
1371;BME280;14306;49.942;11.570;2023-05-10T05:23:50;96898.66;;;12.31;88.93
1371;BME280;14306;49.942;11.570;2023-05-10T05:26:23;96891.19;;;12.20;89.78
1371;BME280;14306;49.942;11.570;2023-05-10T05:28:53;96887.69;;;12.19;89.08
1371;BME280;14306;49.942;11.570;2023-05-10T05:31:22;96894.00;;;12.32;89.13
1371;BME280;14306;49.942;11.570;2023-05-10T05:33:52;96895.94;;;12.31;89.89
1371;BME280;14306;49.942;11.570;2023-05-10T05:36:21;96909.34;;;12.65;89.82
1371;BME280;14306;49.942;11.570;2023-05-10T05:38:50;96894.41;;;12.22;90.82
1371;BME280;14306;49.942;11.570;2023-05-10T05:41:19;96902.88;;;12.20;90.59
1371;BME280;14306;49.942;11.570;2023-05-10T05:43:50;96890.09;;;12.21;92.82
1371;BME280;14306;49.942;11.570;2023-05-10T05:46:19;96893.63;;;12.13;93.50
1371;BME280;14306;49.942;11.570;2023-05-10T05:48:48;96908.91;;;12.26;92.24
1371;BME280;14306;49.942;11.570;2023-05-10T05:51:17;96899.72;;;12.10;92.45
1371;BME280;14306;49.942;11.570;2023-05-10T05:53:47;96921.84;;;12.58;92.29
1371;BME280;14306;49.942;11.570;2023-05-10T05:56:16;96913.13;;;12.93;91.38
1371;BME280;14306;49.942;11.570;2023-05-10T05:58:52;96913.97;;;12.65;91.78
1371;BME280;14306;49.942;11.570;2023-05-10T06:01:21;96910.13;;;12.86;93.66
1371;BME280;14306;49.942;11.570;2023-05-10T06:03:50;96908.13;;;13.04;91.44
1371;BME280;14306;49.942;11.570;2023-05-10T06:06:19;96925.75;;;12.69;92.61
1371;BME280;14306;49.942;11.570;2023-05-10T06:08:49;96921.38;;;13.05;92.98
1371;BME280;14306;49.942;11.570;2023-05-10T06:11:18;96930.25;;;13.35;91.59
1371;BME280;14306;49.942;11.570;2023-05-10T06:13:47;96930.97;;;13.64;92.18
1371;BME280;14306;49.942;11.570;2023-05-10T06:16:19;96938.03;;;13.77;91.74
1371;BME280;14306;49.942;11.570;2023-05-10T06:18:48;96943.06;;;13.87;90.51
1371;BME280;14306;49.942;11.570;2023-05-10T06:21:17;96948.41;;;13.96;90.97
1371;BME280;14306;49.942;11.570;2023-05-10T06:23:45;96946.09;;;14.18;91.60
1371;BME280;14306;49.942;11.570;2023-05-10T06:26:14;96941.03;;;13.64;90.57
1371;BME280;14306;49.942;11.570;2023-05-10T06:28:43;96948.38;;;13.84;91.39
1371;BME280;14306;49.942;11.570;2023-05-10T06:31:12;96949.91;;;13.73;91.29
1371;BME280;14306;49.942;11.570;2023-05-10T06:33:41;96944.78;;;14.04;91.55
1371;BME280;14306;49.942;11.570;2023-05-10T06:36:11;96961.59;;;14.06;89.36
1371;BME280;14306;49.942;11.570;2023-05-10T06:38:40;96955.59;;;14.12;90.46
1371;BME280;14306;49.942;11.570;2023-05-10T06:41:08;96955.22;;;14.02;89.49
1371;BME280;14306;49.942;11.570;2023-05-10T06:43:38;96962.81;;;14.29;90.10
1371;BME280;14306;49.942;11.570;2023-05-10T06:46:08;96940.38;;;13.99;90.99
1371;BME280;14306;49.942;11.570;2023-05-10T06:48:37;96964.34;;;14.18;89.44
1371;BME280;14306;49.942;11.570;2023-05-10T06:51:07;96960.13;;;14.08;89.93
1371;BME280;14306;49.942;11.570;2023-05-10T06:53:36;96961.22;;;13.63;91.46
1371;BME280;14306;49.942;11.570;2023-05-10T06:56:05;96970.06;;;13.60;90.91
1371;BME280;14306;49.942;11.570;2023-05-10T06:58:34;96956.25;;;13.65;92.65
1371;BME280;14306;49.942;11.570;2023-05-10T07:01:03;96968.38;;;13.67;92.26
1371;BME280;14306;49.942;11.570;2023-05-10T07:03:32;96968.00;;;14.22;90.33
1371;BME280;14306;49.942;11.570;2023-05-10T07:06:01;96967.34;;;14.37;89.38
1371;BME280;14306;49.942;11.570;2023-05-10T07:08:33;96981.22;;;14.44;89.60
1371;BME280;14306;49.942;11.570;2023-05-10T07:11:03;96971.66;;;14.50;91.36
1371;BME280;14306;49.942;11.570;2023-05-10T07:13:32;96963.25;;;14.31;91.66
1371;BME280;14306;49.942;11.570;2023-05-10T07:16:01;96976.19;;;15.18;93.97
1371;BME280;14306;49.942;11.570;2023-05-10T07:18:32;96972.97;;;15.52;90.48
1371;BME280;14306;49.942;11.570;2023-05-10T07:21:01;96970.25;;;15.80;89.71
1371;BME280;14306;49.942;11.570;2023-05-10T07:23:30;96980.16;;;16.00;85.14
1371;BME280;14306;49.942;11.570;2023-05-10T07:26:01;96959.25;;;15.92;82.95
1371;BME280;14306;49.942;11.570;2023-05-10T07:28:30;96979.34;;;15.99;88.93
1371;BME280;14306;49.942;11.570;2023-05-10T07:30:58;96959.53;;;15.87;89.06
1371;BME280;14306;49.942;11.570;2023-05-10T07:33:31;96983.44;;;16.95;86.16
1371;BME280;14306;49.942;11.570;2023-05-10T07:36:00;96976.50;;;16.82;84.80
1371;BME280;14306;49.942;11.570;2023-05-10T07:38:29;96981.50;;;16.95;83.98
1371;BME280;14306;49.942;11.570;2023-05-10T07:40:58;96971.06;;;17.01;83.13
1371;BME280;14306;49.942;11.570;2023-05-10T07:43:29;96982.41;;;16.25;81.58
1371;BME280;14306;49.942;11.570;2023-05-10T07:45:59;96983.34;;;16.45;84.28
1371;BME280;14306;49.942;11.570;2023-05-10T07:48:28;96980.34;;;16.96;80.21
1371;BME280;14306;49.942;11.570;2023-05-10T07:50:57;96976.91;;;16.84;81.24
1371;BME280;14306;49.942;11.570;2023-05-10T07:53:26;96984.13;;;16.92;82.61
1371;BME280;14306;49.942;11.570;2023-05-10T07:55:57;96982.66;;;16.63;80.97
1371;BME280;14306;49.942;11.570;2023-05-10T07:58:27;96986.00;;;17.03;81.42
1371;BME280;14306;49.942;11.570;2023-05-10T08:00:56;96976.97;;;17.53;78.90
1371;BME280;14306;49.942;11.570;2023-05-10T08:03:25;96987.19;;;17.56;83.60
1371;BME280;14306;49.942;11.570;2023-05-10T08:05:55;96990.63;;;18.70;81.92
1371;BME280;14306;49.942;11.570;2023-05-10T08:08:24;96993.44;;;19.23;77.92
1371;BME280;14306;49.942;11.570;2023-05-10T08:10:53;96982.09;;;18.53;75.83
1371;BME280;14306;49.942;11.570;2023-05-10T08:13:23;96993.28;;;19.12;74.82
1371;BME280;14306;49.942;11.570;2023-05-10T08:15:51;96996.38;;;20.22;70.36
1371;BME280;14306;49.942;11.570;2023-05-10T08:18:22;96981.34;;;20.12;77.78
1371;BME280;14306;49.942;11.570;2023-05-10T08:20:52;96997.56;;;20.21;76.60
1371;BME280;14306;49.942;11.570;2023-05-10T08:23:21;96996.44;;;19.37;69.43
1371;BME280;14306;49.942;11.570;2023-05-10T08:25:49;96998.59;;;19.01;70.92
1371;BME280;14306;49.942;11.570;2023-05-10T08:28:18;96998.19;;;18.54;73.00
1371;BME280;14306;49.942;11.570;2023-05-10T08:30:47;97009.19;;;18.35;73.03
1371;BME280;14306;49.942;11.570;2023-05-10T08:33:17;97008.41;;;17.97;75.70
1371;BME280;14306;49.942;11.570;2023-05-10T08:35:48;97010.19;;;18.08;78.96
1371;BME280;14306;49.942;11.570;2023-05-10T08:38:17;97012.63;;;18.32;73.60
1371;BME280;14306;49.942;11.570;2023-05-10T08:40:46;97023.03;;;18.23;73.25
1371;BME280;14306;49.942;11.570;2023-05-10T08:43:18;97015.50;;;17.29;75.53
1371;BME280;14306;49.942;11.570;2023-05-10T08:45:48;97014.75;;;17.82;77.60
1371;BME280;14306;49.942;11.570;2023-05-10T08:48:17;97019.22;;;18.47;75.19
1371;BME280;14306;49.942;11.570;2023-05-10T08:50:48;97024.78;;;19.44;77.20
1371;BME280;14306;49.942;11.570;2023-05-10T08:53:20;97032.00;;;20.11;75.58
1371;BME280;14306;49.942;11.570;2023-05-10T08:55:52;97028.78;;;22.58;68.69
1371;BME280;14306;49.942;11.570;2023-05-10T08:58:21;97020.97;;;23.55;70.24
1371;BME280;14306;49.942;11.570;2023-05-10T09:00:50;97007.19;;;24.59;63.47
1371;BME280;14306;49.942;11.570;2023-05-10T09:03:20;97008.00;;;23.21;56.64
1371;BME280;14306;49.942;11.570;2023-05-10T09:05:50;97004.53;;;21.38;68.51
1371;BME280;14306;49.942;11.570;2023-05-10T09:08:20;97018.16;;;20.04;68.15
1371;BME280;14306;49.942;11.570;2023-05-10T09:10:52;97005.66;;;20.43;70.45
1371;BME280;14306;49.942;11.570;2023-05-10T09:13:22;97033.84;;;19.74;73.25
1371;BME280;14306;49.942;11.570;2023-05-10T09:15:51;97032.69;;;19.49;72.21
1371;BME280;14306;49.942;11.570;2023-05-10T09:18:21;97049.88;;;18.97;75.27
1371;BME280;14306;49.942;11.570;2023-05-10T09:20:54;97045.03;;;18.87;75.01
1371;BME280;14306;49.942;11.570;2023-05-10T09:23:24;97042.03;;;18.96;73.83
1371;BME280;14306;49.942;11.570;2023-05-10T09:26:03;97054.41;;;19.58;73.12
1371;BME280;14306;49.942;11.570;2023-05-10T09:28:33;97038.28;;;19.82;71.54
1371;BME280;14306;49.942;11.570;2023-05-10T09:31:01;97047.09;;;21.41;66.67
1371;BME280;14306;49.942;11.570;2023-05-10T09:33:43;97053.63;;;22.51;66.94
1371;BME280;14306;49.942;11.570;2023-05-10T09:36:17;97039.91;;;22.94;63.16
1371;BME280;14306;49.942;11.570;2023-05-10T09:38:53;97050.50;;;24.25;54.49
1371;BME280;14306;49.942;11.570;2023-05-10T09:41:22;97060.34;;;25.12;55.82
1371;BME280;14306;49.942;11.570;2023-05-10T09:43:55;97057.88;;;25.17;52.51
1371;BME280;14306;49.942;11.570;2023-05-10T09:46:24;97048.56;;;24.90;51.39
1371;BME280;14306;49.942;11.570;2023-05-10T09:48:53;97035.53;;;24.05;49.30
1371;BME280;14306;49.942;11.570;2023-05-10T09:51:24;97030.84;;;23.11;54.20
1371;BME280;14306;49.942;11.570;2023-05-10T09:54:09;97012.03;;;22.02;56.96
1371;BME280;14306;49.942;11.570;2023-05-10T09:56:39;97023.09;;;21.45;58.67
1371;BME280;14306;49.942;11.570;2023-05-10T09:59:10;97025.75;;;21.88;56.29
1371;BME280;14306;49.942;11.570;2023-05-10T10:01:38;97023.81;;;21.92;55.41
1371;BME280;14306;49.942;11.570;2023-05-10T10:04:09;97034.34;;;22.66;53.78
1371;BME280;14306;49.942;11.570;2023-05-10T10:06:44;97067.94;;;23.83;49.00
1371;BME280;14306;49.942;11.570;2023-05-10T10:09:14;97084.84;;;25.13;47.24
1371;BME280;14306;49.942;11.570;2023-05-10T10:11:44;97068.31;;;24.13;48.68
1371;BME280;14306;49.942;11.570;2023-05-10T10:14:13;97076.03;;;24.71;48.10
1371;BME280;14306;49.942;11.570;2023-05-10T10:16:41;97080.44;;;25.23;46.34
1371;BME280;14306;49.942;11.570;2023-05-10T10:19:30;97088.94;;;25.56;43.80
1371;BME280;14306;49.942;11.570;2023-05-10T10:22:03;97069.41;;;24.44;47.47
1371;BME280;14306;49.942;11.570;2023-05-10T10:24:32;97056.91;;;23.87;50.51
1371;BME280;14306;49.942;11.570;2023-05-10T10:27:19;97038.19;;;22.40;57.66
1371;BME280;14306;49.942;11.570;2023-05-10T10:30:00;97037.38;;;22.39;57.37
1371;BME280;14306;49.942;11.570;2023-05-10T10:32:41;97038.56;;;22.35;56.87
1371;BME280;14306;49.942;11.570;2023-05-10T10:35:14;97026.72;;;22.31;54.25
1371;BME280;14306;49.942;11.570;2023-05-10T10:37:46;97026.50;;;21.85;58.34
1371;BME280;14306;49.942;11.570;2023-05-10T10:40:26;97039.75;;;22.41;53.85
1371;BME280;14306;49.942;11.570;2023-05-10T10:43:20;97053.78;;;23.32;51.70
1371;BME280;14306;49.942;11.570;2023-05-10T10:46:11;97057.31;;;23.75;50.21
1371;BME280;14306;49.942;11.570;2023-05-10T10:48:41;97064.22;;;24.49;47.18
1371;BME280;14306;49.942;11.570;2023-05-10T10:51:10;97113.88;;;26.78;42.58
1371;BME280;14306;49.942;11.570;2023-05-10T10:53:43;97104.84;;;26.71;41.18
1371;BME280;14306;49.942;11.570;2023-05-10T10:56:14;97124.94;;;27.65;38.31
1371;BME280;14306;49.942;11.570;2023-05-10T10:58:49;97099.31;;;27.27;39.23
1371;BME280;14306;49.942;11.570;2023-05-10T11:01:21;97149.91;;;29.03;36.97
1371;BME280;14306;49.942;11.570;2023-05-10T11:04:17;97125.06;;;27.58;39.59
1371;BME280;14306;49.942;11.570;2023-05-10T11:06:46;97101.09;;;27.41;38.10
1371;BME280;14306;49.942;11.570;2023-05-10T11:09:17;97103.50;;;27.39;38.40
1371;BME280;14306;49.942;11.570;2023-05-10T11:11:50;97128.72;;;28.47;37.12
1371;BME280;14306;49.942;11.570;2023-05-10T11:14:21;97139.09;;;28.66;36.47
1371;BME280;14306;49.942;11.570;2023-05-10T11:16:50;97135.88;;;28.67;34.82
1371;BME280;14306;49.942;11.570;2023-05-10T11:19:20;97108.25;;;27.65;36.89
1371;BME280;14306;49.942;11.570;2023-05-10T11:21:51;97067.44;;;25.64;41.21
1371;BME280;14306;49.942;11.570;2023-05-10T11:24:56;97033.06;;;22.35;60.92
1371;BME280;14306;49.942;11.570;2023-05-10T11:27:28;97045.19;;;20.65;72.34
1371;BME280;14306;49.942;11.570;2023-05-10T11:29:57;97050.09;;;20.12;74.78
1371;BME280;14306;49.942;11.570;2023-05-10T11:32:25;97050.41;;;19.52;76.14
1371;BME280;14306;49.942;11.570;2023-05-10T11:34:55;97048.19;;;19.12;78.48
1371;BME280;14306;49.942;11.570;2023-05-10T11:37:27;97049.28;;;18.62;79.35
1371;BME280;14306;49.942;11.570;2023-05-10T11:40:01;97050.09;;;18.44;80.17
1371;BME280;14306;49.942;11.570;2023-05-10T11:42:30;97050.06;;;18.40;81.32
1371;BME280;14306;49.942;11.570;2023-05-10T11:45:00;97036.03;;;18.45;82.81
1371;BME280;14306;49.942;11.570;2023-05-10T11:47:29;97054.00;;;18.43;84.35
1371;BME280;14306;49.942;11.570;2023-05-10T11:49:57;97049.56;;;18.35;85.57
1371;BME280;14306;49.942;11.570;2023-05-10T11:52:27;97061.00;;;18.21;84.05
1371;BME280;14306;49.942;11.570;2023-05-10T11:54:55;97054.28;;;18.19;83.33
1371;BME280;14306;49.942;11.570;2023-05-10T11:57:27;97051.31;;;18.08;82.70
1371;BME280;14306;49.942;11.570;2023-05-10T11:59:57;97053.41;;;17.96;82.01
1371;BME280;14306;49.942;11.570;2023-05-10T12:02:25;97054.56;;;17.95;82.78
1371;BME280;14306;49.942;11.570;2023-05-10T12:04:55;97054.41;;;18.26;80.82
1371;BME280;14306;49.942;11.570;2023-05-10T12:07:26;97056.22;;;18.56;80.52
1371;BME280;14306;49.942;11.570;2023-05-10T12:10:08;97060.50;;;18.76;82.19
1371;BME280;14306;49.942;11.570;2023-05-10T12:12:40;97064.03;;;19.22;83.45
1371;BME280;14306;49.942;11.570;2023-05-10T12:15:17;97069.94;;;19.47;77.98
1371;BME280;14306;49.942;11.570;2023-05-10T12:17:47;97057.09;;;19.28;76.72
1371;BME280;14306;49.942;11.570;2023-05-10T12:20:17;97065.19;;;19.44;85.37
1371;BME280;14306;49.942;11.570;2023-05-10T12:22:48;97067.19;;;19.99;79.98
1371;BME280;14306;49.942;11.570;2023-05-10T12:25:18;97064.88;;;19.75;71.44
1371;BME280;14306;49.942;11.570;2023-05-10T12:27:53;97060.50;;;20.29;70.83
1371;BME280;14306;49.942;11.570;2023-05-10T12:30:23;97060.56;;;19.48;73.55
1371;BME280;14306;49.942;11.570;2023-05-10T12:32:53;97066.69;;;19.38;72.83
1371;BME280;14306;49.942;11.570;2023-05-10T12:35:22;97058.91;;;20.25;75.06
1371;BME280;14306;49.942;11.570;2023-05-10T12:37:51;97062.72;;;20.50;70.02
1371;BME280;14306;49.942;11.570;2023-05-10T12:40:20;97071.16;;;20.67;70.89
1371;BME280;14306;49.942;11.570;2023-05-10T12:42:48;97068.53;;;21.14;65.90
1371;BME280;14306;49.942;11.570;2023-05-10T12:45:19;97072.75;;;22.09;63.55
1371;BME280;14306;49.942;11.570;2023-05-10T12:47:47;97067.50;;;21.36;64.60
1371;BME280;14306;49.942;11.570;2023-05-10T12:50:15;97078.38;;;22.34;63.74
1371;BME280;14306;49.942;11.570;2023-05-10T12:52:45;97072.53;;;21.74;63.67
1371;BME280;14306;49.942;11.570;2023-05-10T12:55:14;97071.94;;;20.64;63.01
1371;BME280;14306;49.942;11.570;2023-05-10T12:57:42;97067.81;;;20.15;66.33
1371;BME280;14306;49.942;11.570;2023-05-10T13:00:12;97073.44;;;19.70;67.36
1371;BME280;14306;49.942;11.570;2023-05-10T13:02:43;97082.84;;;19.43;68.78
1371;BME280;14306;49.942;11.570;2023-05-10T13:05:12;97066.78;;;19.45;65.36
1371;BME280;14306;49.942;11.570;2023-05-10T13:07:41;97073.88;;;19.23;64.56
1371;BME280;14306;49.942;11.570;2023-05-10T13:10:10;97081.66;;;19.44;67.43
1371;BME280;14306;49.942;11.570;2023-05-10T13:12:39;97080.31;;;19.83;69.35
1371;BME280;14306;49.942;11.570;2023-05-10T13:15:08;97084.53;;;20.06;70.41
1371;BME280;14306;49.942;11.570;2023-05-10T13:17:36;97091.47;;;20.23;65.17
1371;BME280;14306;49.942;11.570;2023-05-10T13:20:10;97078.53;;;19.97;66.30
1371;BME280;14306;49.942;11.570;2023-05-10T13:22:38;97091.84;;;20.21;63.31